Aérodrome :
LOGIN :

S'inscrire | Disclaimer

   EN    FR    IT 

 










Légende :    VFR   VFR Marginal   IFR   IFR Intensif   IFR Très Intensif
Visi : 
Plafond : 
>= 8 km
>= 3000ft
5 à 8 km
1000 à 3000 ft
1500m à 5 km
500 à 1000 ft
800 à 1500m
200 à 500 ft
< 800m
< 200 ft
Symboles :   Orages  Brouillard  Fortes neiges  Fortes précipitations  Vent > 20 kt
SIGMETs :   Divers  Orages  Givrage  Turbulence  Onde Orograph.  Cendres Volcan.






- Altitude de l'aérodrome : 935 ft


EBFS - Florennes

DERNIER METAR :
  • 061655Z AUTO 29012KT 9999 FEW047/// SCT120/// BKN150/// 17/06 Q1021 BLU

METARs EXPIRÉS :
  • 061625Z AUTO 28014KT 9999 FEW100/// SCT140/// BKN220/// 17/06 Q1021 BLU
  • 061555Z AUTO 28014KT 9999 FEW044/// SCT120/// BKN220/// 17/06 Q1021 BLU
  • 061525Z 30013KT 9999 FEW045 17/06 Q1020 BLU BLU
  • 061455Z 31011KT 9999 FEW045 17/06 Q1020 BLU BLU
  • 061425Z 29014KT 9999 FEW045 17/06 Q1020 BLU BLU

TAF TAF EBFS
Valide du 06 à 13h jusqu'au 06 à 22h UTC


061141Z 0613/0622 29010G20KT 9999 SCT040
PROB30
TEMPO 0613/0616 29015G25KT 6000 -SHRA SCT035TCU



MET'MAP, la Météo Aéronautique d'un coup d'oeil ! - Copyright ORBIFLY Décembre 2007 - Disclaimer

ORBIFLY MET'MAP TEAM :

Programmation & Développement : Alexandra Zaïnal
Sur une idée originale de : Baudouin d'Aumeries
Assistance à la programmation : Marc-Olivier Méhu
Soutien technique & logistique : Manuel Goepfert

Contact : metmap@orbifly.com




SOURCES & CREDITS :

   NOAA